createdAt,value
2018-05-17T00:02:05.678Z,8.70
2018-05-17T00:04:34.497Z,9.13
2018-05-17T00:07:04.237Z,8.17
2018-05-17T00:09:33.039Z,8.47
2018-05-17T00:12:01.817Z,8.40
2018-05-17T00:14:31.493Z,8.27
2018-05-17T00:17:00.351Z,8.03
2018-05-17T00:19:29.406Z,8.53
2018-05-17T00:21:58.334Z,8.00
2018-05-17T00:24:27.117Z,8.10
2018-05-17T00:26:55.985Z,8.07
2018-05-17T00:29:24.838Z,8.53
2018-05-17T00:31:53.642Z,8.40
2018-05-17T00:34:22.766Z,11.03
2018-05-17T00:36:51.608Z,8.03
2018-05-17T00:39:20.391Z,7.60
2018-05-17T00:41:49.755Z,8.57
2018-05-17T00:44:18.529Z,7.60
2018-05-17T00:46:47.327Z,6.80
2018-05-17T00:49:16.174Z,8.00
2018-05-17T00:51:44.978Z,7.27
2018-05-17T00:54:13.774Z,6.67
2018-05-17T00:56:42.678Z,8.97
2018-05-17T00:59:11.512Z,9.40
2018-05-17T01:01:40.333Z,8.13
2018-05-17T01:04:09.170Z,9.93
2018-05-17T01:06:38.299Z,10.57
2018-05-17T01:09:09.903Z,9.33
2018-05-17T01:11:39.097Z,9.60
2018-05-17T01:14:08.004Z,9.67
2018-05-17T01:16:37.433Z,9.70
2018-05-17T01:19:06.491Z,10.00
2018-05-17T01:21:35.287Z,11.87
2018-05-17T01:24:04.089Z,10.87
2018-05-17T01:26:33.562Z,12.00
2018-05-17T01:29:02.361Z,11.43
2018-05-17T01:31:31.176Z,12.07
2018-05-17T01:33:59.993Z,12.70
2018-05-17T01:36:28.810Z,12.77
2018-05-17T01:38:58.022Z,14.17
2018-05-17T01:41:26.842Z,14.53
2018-05-17T01:43:55.627Z,15.50
2018-05-17T01:46:25.216Z,16.27
2018-05-17T01:48:54.022Z,14.63
2018-05-17T01:51:22.894Z,14.53
2018-05-17T01:53:51.714Z,14.33
2018-05-17T01:56:20.525Z,12.37
2018-05-17T01:58:49.571Z,12.93
2018-05-17T02:01:18.361Z,11.20
2018-05-17T02:03:47.169Z,14.67
2018-05-17T02:06:16.046Z,14.70
2018-05-17T02:08:46.459Z,13.97
2018-05-17T02:11:15.328Z,17.53
2018-05-17T02:13:44.145Z,18.70
2018-05-17T02:16:12.942Z,19.57
2018-05-17T02:18:42.818Z,20.90
2018-05-17T02:21:11.638Z,21.20
2018-05-17T02:23:40.435Z,23.00
2018-05-17T02:26:10.205Z,21.40
2018-05-17T02:28:39.009Z,21.90
2018-05-17T02:31:07.789Z,27.13
2018-05-17T02:33:36.674Z,31.37
2018-05-17T02:36:05.518Z,31.47
2018-05-17T02:38:34.316Z,32.27
2018-05-17T02:41:03.182Z,37.17
2018-05-17T02:43:32.075Z,37.97
2018-05-17T02:46:00.951Z,40.40
2018-05-17T02:48:29.784Z,40.30
2018-05-17T02:50:58.578Z,39.67
2018-05-17T02:53:27.626Z,38.30
2018-05-17T02:55:56.527Z,40.27
2018-05-17T02:58:25.339Z,39.50
2018-05-17T03:00:54.184Z,42.03
2018-05-17T03:03:23.007Z,41.13
2018-05-17T03:05:51.890Z,40.53
2018-05-17T03:08:21.699Z,42.33
2018-05-17T03:10:50.593Z,41.37
2018-05-17T03:13:19.394Z,41.80
2018-05-17T03:15:48.466Z,43.20
2018-05-17T03:18:17.363Z,42.87
2018-05-17T03:20:46.256Z,41.70
2018-05-17T03:23:15.147Z,44.70
2018-05-17T03:25:43.957Z,47.60
2018-05-17T03:28:13.346Z,43.70
2018-05-17T03:30:42.141Z,45.67
2018-05-17T03:33:10.939Z,44.90
2018-05-17T03:35:39.769Z,48.43
2018-05-17T03:38:08.575Z,47.83
2018-05-17T03:40:37.998Z,48.33
2018-05-17T03:43:06.799Z,51.03
2018-05-17T03:45:35.674Z,48.30
2018-05-17T03:48:04.874Z,48.63
2018-05-17T03:50:33.773Z,51.53
2018-05-17T03:53:02.573Z,49.90
2018-05-17T03:55:31.398Z,50.13
2018-05-17T03:58:00.242Z,47.53
2018-05-17T04:00:35.066Z,49.80
2018-05-17T04:03:09.643Z,47.57
2018-05-17T04:05:45.347Z,46.77
2018-05-17T04:08:15.642Z,45.80
2018-05-17T04:10:44.557Z,46.13
2018-05-17T04:13:13.462Z,46.90
2018-05-17T04:15:42.241Z,45.93
2018-05-17T04:18:11.041Z,47.77
2018-05-17T04:20:40.233Z,41.73
2018-05-17T04:23:09.091Z,43.77
2018-05-17T04:25:37.884Z,41.10
2018-05-17T04:28:06.715Z,40.60
2018-05-17T04:30:35.501Z,42.23
2018-05-17T04:33:04.566Z,41.17
2018-05-17T04:35:33.361Z,40.93
2018-05-17T04:38:02.264Z,38.73
2018-05-17T04:40:31.480Z,37.50
2018-05-17T04:43:00.254Z,38.30
2018-05-17T04:45:29.055Z,37.30
2018-05-17T04:47:57.913Z,37.03
2018-05-17T04:50:26.717Z,38.90
2018-05-17T04:52:55.511Z,34.60
2018-05-17T04:55:24.350Z,34.60
2018-05-17T04:57:53.191Z,35.37
2018-05-17T05:00:22.084Z,37.67
2018-05-17T05:02:51.963Z,38.07
2018-05-17T05:05:20.692Z,34.20
2018-05-17T05:07:50.695Z,35.57
2018-05-17T05:10:19.889Z,32.77
2018-05-17T05:12:48.789Z,32.47
2018-05-17T05:15:17.770Z,32.07
2018-05-17T05:17:46.578Z,32.90
2018-05-17T05:20:15.386Z,33.27
2018-05-17T05:22:44.385Z,30.77
2018-05-17T05:25:13.320Z,30.33
2018-05-17T05:27:42.135Z,30.53
2018-05-17T05:30:10.954Z,31.90
2018-05-17T05:32:39.813Z,32.13
2018-05-17T05:35:08.805Z,30.93
2018-05-17T05:37:37.653Z,30.57
2018-05-17T05:40:06.482Z,33.70
2018-05-17T05:42:35.369Z,32.83
2018-05-17T05:45:04.170Z,31.27
2018-05-17T05:47:32.968Z,33.63
2018-05-17T05:50:01.850Z,32.63
2018-05-17T05:52:30.635Z,34.90
2018-05-17T05:54:59.430Z,35.37
2018-05-17T05:57:28.488Z,36.13
2018-05-17T05:59:57.322Z,35.03
2018-05-17T06:02:26.136Z,36.43
2018-05-17T06:04:55.503Z,36.10
2018-05-17T06:07:29.301Z,37.33
2018-05-17T06:09:58.193Z,37.23
2018-05-17T06:12:27.189Z,36.87
2018-05-17T06:14:56.131Z,36.40
2018-05-17T06:17:25.220Z,36.87
2018-05-17T06:19:53.970Z,37.13
2018-05-17T06:22:22.935Z,37.33
2018-05-17T06:24:52.158Z,39.03
2018-05-17T06:27:20.966Z,38.40
2018-05-17T06:29:49.761Z,36.90
2018-05-17T06:32:19.011Z,37.90
2018-05-17T06:34:47.810Z,36.37
2018-05-17T06:37:16.618Z,38.33
2018-05-17T06:39:45.709Z,36.87
2018-05-17T06:42:14.512Z,38.13
2018-05-17T06:44:43.345Z,37.77
2018-05-17T06:47:12.275Z,38.63
2018-05-17T06:49:41.093Z,37.03
2018-05-17T06:52:09.879Z,36.50
2018-05-17T06:54:38.754Z,38.43
2018-05-17T06:57:07.549Z,37.63
2018-05-17T06:59:36.434Z,37.13
2018-05-17T07:02:05.322Z,39.07
2018-05-17T07:04:34.118Z,37.80
2018-05-17T07:07:02.957Z,35.80
2018-05-17T07:09:33.845Z,36.77
2018-05-17T07:12:02.968Z,37.43
2018-05-17T07:14:32.094Z,35.10
2018-05-17T07:17:00.890Z,34.73
2018-05-17T07:19:29.913Z,35.37
2018-05-17T07:21:58.837Z,33.70
2018-05-17T07:24:27.695Z,32.67
2018-05-17T07:26:57.502Z,32.87
2018-05-17T07:29:26.299Z,32.70
2018-05-17T07:31:55.103Z,33.07
2018-05-17T07:34:23.916Z,30.47
2018-05-17T07:36:52.718Z,32.17
2018-05-17T07:39:22.232Z,32.63
2018-05-17T07:41:50.968Z,31.87
2018-05-17T07:44:20.203Z,31.77
2018-05-17T07:46:49.212Z,29.70
2018-05-17T07:49:17.945Z,29.73
2018-05-17T07:51:46.834Z,27.47
2018-05-17T07:54:15.682Z,28.53
2018-05-17T07:56:44.484Z,27.03
2018-05-17T07:59:13.301Z,27.73
2018-05-17T08:01:42.324Z,26.30
2018-05-17T08:04:11.141Z,26.27
2018-05-17T08:06:39.946Z,25.70
2018-05-17T08:09:10.189Z,25.07
2018-05-17T08:11:39.089Z,24.47
2018-05-17T08:14:07.902Z,25.23
2018-05-17T08:16:37.083Z,25.00
2018-05-17T08:19:05.970Z,24.80
2018-05-17T08:21:34.766Z,23.63
2018-05-17T08:24:03.856Z,24.53
2018-05-17T08:26:32.749Z,25.37
2018-05-17T08:29:01.604Z,25.30
2018-05-17T08:31:31.142Z,24.47
2018-05-17T08:34:00.031Z,23.23
2018-05-17T08:36:28.920Z,23.53
2018-05-17T08:38:57.662Z,24.23
2018-05-17T08:41:26.465Z,24.60
2018-05-17T08:43:55.390Z,23.70
2018-05-17T08:46:24.298Z,22.63
2018-05-17T08:48:53.119Z,23.33
2018-05-17T08:51:22.282Z,23.13
2018-05-17T08:53:51.108Z,23.87
2018-05-17T08:56:19.912Z,23.83
2018-05-17T08:58:48.971Z,23.27
2018-05-17T09:01:17.771Z,23.37
2018-05-17T09:03:46.574Z,21.80
2018-05-17T09:06:15.742Z,22.00
2018-05-17T09:08:46.507Z,22.80
2018-05-17T09:11:15.306Z,22.47
2018-05-17T09:13:44.550Z,21.03
2018-05-17T09:16:13.344Z,22.07
2018-05-17T09:18:42.327Z,21.03
2018-05-17T09:21:11.251Z,21.67
2018-05-17T09:23:40.025Z,20.40
2018-05-17T09:26:08.858Z,20.07
2018-05-17T09:28:38.105Z,21.03
2018-05-17T09:31:06.929Z,19.60
2018-05-17T09:33:35.727Z,19.47
2018-05-17T09:36:04.554Z,19.73
2018-05-17T09:38:33.460Z,19.13
2018-05-17T09:41:02.757Z,18.97
2018-05-17T09:43:31.546Z,18.30
2018-05-17T09:46:00.354Z,17.93
2018-05-17T09:48:29.349Z,17.93
2018-05-17T09:50:58.220Z,19.13
2018-05-17T09:53:27.115Z,18.90
2018-05-17T09:55:56.007Z,19.10
2018-05-17T09:58:24.811Z,18.83
2018-05-17T10:00:53.617Z,17.83
2018-05-17T10:03:23.082Z,18.10
2018-05-17T10:05:51.978Z,16.83
2018-05-17T10:08:22.828Z,18.37
2018-05-17T10:10:52.012Z,17.87
2018-05-17T10:13:20.902Z,16.97
2018-05-17T10:15:49.703Z,17.27
2018-05-17T10:18:18.502Z,18.07
2018-05-17T10:20:47.546Z,17.83
2018-05-17T10:23:16.414Z,17.03
2018-05-17T10:25:45.212Z,18.03
2018-05-17T10:28:14.051Z,18.20
2018-05-17T10:30:43.038Z,17.73
2018-05-17T10:33:11.833Z,17.70
2018-05-17T10:35:40.728Z,18.37
2018-05-17T10:38:09.760Z,16.43
2018-05-17T10:40:38.562Z,17.03
2018-05-17T10:43:07.389Z,16.30
2018-05-17T10:45:37.222Z,17.03
2018-05-17T10:48:06.019Z,17.43
2018-05-17T10:50:34.890Z,17.97
2018-05-17T10:53:03.730Z,16.70
2018-05-17T10:55:32.564Z,18.10
2018-05-17T10:58:02.281Z,16.80
2018-05-17T11:00:31.244Z,15.70
2018-05-17T11:03:00.048Z,16.03
2018-05-17T11:05:28.874Z,16.20
2018-05-17T11:07:59.178Z,18.30
2018-05-17T11:10:28.017Z,16.90
2018-05-17T11:12:56.851Z,17.87
2018-05-17T11:15:26.126Z,18.05
2018-05-17T11:17:55.054Z,18.75
2018-05-17T11:20:23.951Z,18.12
2018-05-17T11:22:53.698Z,19.05
2018-05-17T11:25:22.521Z,19.17
2018-05-17T11:27:51.338Z,16.83
2018-05-17T11:30:20.136Z,16.52
2018-05-17T11:32:49.007Z,16.70
2018-05-17T11:35:17.887Z,17.58
2018-05-17T11:37:46.697Z,17.87
2018-05-17T11:40:15.675Z,18.65
2018-05-17T11:42:44.565Z,17.73
2018-05-17T11:45:13.381Z,16.73
2018-05-17T11:47:42.357Z,16.67
2018-05-17T11:50:11.166Z,17.27
2018-05-17T11:52:40.001Z,16.50
2018-05-17T11:55:08.821Z,16.58
2018-05-17T11:57:37.648Z,16.70
2018-05-17T12:00:06.505Z,15.82
2018-05-17T12:02:36.329Z,16.90
2018-05-17T12:05:05.101Z,16.15
2018-05-17T12:10:18.349Z,15.10
2018-05-17T12:12:47.541Z,16.10
2018-05-17T12:15:16.478Z,16.17
2018-05-17T12:17:45.317Z,15.93
2018-05-17T12:20:14.220Z,16.23
2018-05-17T12:22:43.102Z,15.18
2018-05-17T12:25:13.639Z,14.75
2018-05-17T12:27:42.530Z,15.23
2018-05-17T12:30:11.330Z,14.75
2018-05-17T12:32:40.308Z,15.18
2018-05-17T12:35:08.986Z,14.63
2018-05-17T12:37:37.787Z,14.15
2018-05-17T12:40:06.908Z,14.00
2018-05-17T12:42:35.779Z,15.13
2018-05-17T12:45:04.619Z,15.27
2018-05-17T12:47:34.582Z,15.70
2018-05-17T12:50:03.386Z,13.45
2018-05-17T12:52:32.266Z,13.62
2018-05-17T12:55:01.369Z,12.98
2018-05-17T12:57:30.258Z,13.10
2018-05-17T12:59:59.062Z,14.00
2018-05-17T13:02:28.025Z,12.00
2018-05-17T13:04:56.931Z,14.40
2018-05-17T13:07:28.068Z,12.52
2018-05-17T13:09:56.903Z,13.73
2018-05-17T13:12:25.717Z,14.73
2018-05-17T13:14:54.538Z,14.10
2018-05-17T13:17:23.353Z,12.50
2018-05-17T13:19:52.531Z,12.50
2018-05-17T13:22:21.331Z,12.40
2018-05-17T13:24:50.157Z,12.45
2018-05-17T13:27:19.810Z,12.10
2018-05-17T13:29:48.603Z,12.55
2018-05-17T13:32:17.434Z,13.23
2018-05-17T13:34:46.234Z,11.27
2018-05-17T13:37:16.226Z,11.32
2018-05-17T13:39:45.071Z,10.50
2018-05-17T13:42:13.880Z,9.20
2018-05-17T13:44:43.099Z,10.70
2018-05-17T13:47:11.890Z,10.57
2018-05-17T13:49:40.689Z,10.10
2018-05-17T13:52:09.749Z,10.52
2018-05-17T13:54:38.554Z,10.73
2018-05-17T13:57:07.416Z,10.55
2018-05-17T13:59:37.035Z,10.20
2018-05-17T14:02:05.842Z,10.50
2018-05-17T14:04:34.645Z,10.77
2018-05-17T14:07:03.515Z,12.40
2018-05-17T14:09:33.319Z,12.50
2018-05-17T14:12:02.128Z,13.80
2018-05-17T14:14:31.075Z,13.88
2018-05-17T14:16:59.881Z,13.82
2018-05-17T14:19:28.691Z,16.55
2018-05-17T14:21:57.577Z,15.85
2018-05-17T14:24:26.374Z,15.90
2018-05-17T14:26:55.965Z,15.55
2018-05-17T14:29:25.526Z,15.13
2018-05-17T14:31:54.316Z,14.48
2018-05-17T14:34:23.357Z,14.00
2018-05-17T14:36:52.247Z,12.98
2018-05-17T14:39:21.047Z,10.68
2018-05-17T14:41:49.892Z,11.25
2018-05-17T14:44:18.690Z,10.60
2018-05-17T14:46:47.490Z,11.05
2018-05-17T14:49:17.018Z,10.80
2018-05-17T14:51:45.812Z,10.38
2018-05-17T14:54:14.634Z,10.55
2018-05-17T14:56:43.519Z,10.63
2018-05-17T14:59:12.370Z,9.88
2018-05-17T15:01:41.178Z,9.52
2018-05-17T15:04:10.258Z,8.88
2018-05-17T15:06:39.058Z,9.15
2018-05-17T15:09:09.021Z,10.25
2018-05-17T15:11:37.958Z,10.82
2018-05-17T15:14:06.752Z,11.43
2018-05-17T15:16:35.841Z,11.45
2018-05-17T15:19:04.651Z,10.35
2018-05-17T15:21:33.515Z,8.40
2018-05-17T15:24:03.038Z,7.85
2018-05-17T15:26:31.823Z,8.30
2018-05-17T15:29:02.655Z,7.80
2018-05-17T15:31:31.549Z,8.50
2018-05-17T15:34:00.456Z,8.00
2018-05-17T15:36:29.426Z,7.80
2018-05-17T15:38:58.233Z,6.80
2018-05-17T15:41:27.033Z,7.12
2018-05-17T15:43:56.099Z,6.55
2018-05-17T15:46:24.889Z,6.45
2018-05-17T15:48:53.790Z,5.85
2018-05-17T15:51:22.776Z,6.00
2018-05-17T15:53:51.589Z,6.20
2018-05-17T15:56:20.381Z,6.10
2018-05-17T15:58:49.238Z,6.10
2018-05-17T16:01:18.038Z,5.87
2018-05-17T16:03:46.861Z,6.53
2018-05-17T16:06:19.583Z,6.18
2018-05-17T16:08:50.123Z,6.32
2018-05-17T16:11:19.122Z,6.55
2018-05-17T16:13:47.920Z,6.10
2018-05-17T16:16:16.721Z,6.32
2018-05-17T16:18:45.597Z,6.00
2018-05-17T16:21:14.401Z,6.32
2018-05-17T16:23:43.197Z,5.82
2018-05-17T16:26:12.542Z,5.70
2018-05-17T16:28:41.342Z,6.20
2018-05-17T16:31:10.833Z,6.68
2018-05-17T16:33:39.765Z,6.57
2018-05-17T16:36:08.564Z,6.95
2018-05-17T16:38:37.359Z,7.10
2018-05-17T16:41:06.446Z,6.37
2018-05-17T16:43:36.113Z,6.45
2018-05-17T16:46:04.912Z,6.20
2018-05-17T16:48:33.858Z,6.28
2018-05-17T16:51:02.640Z,7.03
2018-05-17T16:53:31.497Z,6.25
2018-05-17T16:56:00.339Z,6.43
2018-05-17T16:58:29.193Z,6.65
2018-05-17T17:00:58.002Z,7.18
2018-05-17T17:03:28.025Z,6.53
2018-05-17T17:05:56.822Z,6.18
2018-05-17T17:08:27.106Z,6.97
2018-05-17T17:10:56.003Z,6.35
2018-05-17T17:13:24.806Z,6.60
2018-05-17T17:15:53.682Z,6.37
2018-05-17T17:18:22.474Z,6.22
2018-05-17T17:20:51.359Z,5.93
2018-05-17T17:23:20.192Z,5.47
2018-05-17T17:25:49.004Z,5.30
2018-05-17T17:28:18.864Z,4.62
2018-05-17T17:30:47.689Z,5.32
2018-05-17T17:33:16.594Z,5.15
2018-05-17T17:35:45.522Z,5.10
2018-05-17T17:38:14.321Z,5.75
2018-05-17T17:40:49.559Z,4.22
2018-05-17T17:43:18.353Z,4.32
2018-05-17T17:45:47.170Z,4.45
2018-05-17T17:48:16.042Z,4.22
2018-05-17T17:50:44.859Z,4.00
2018-05-17T17:53:13.682Z,4.80
2018-05-17T17:55:42.522Z,4.53
2018-05-17T17:58:11.324Z,4.13
2018-05-17T18:00:40.131Z,3.93
2018-05-17T18:03:08.979Z,4.73
2018-05-17T18:05:37.762Z,4.30
2018-05-17T18:08:08.482Z,4.13
2018-05-17T18:10:37.600Z,4.23
2018-05-17T18:13:06.392Z,4.43
2018-05-17T18:15:35.195Z,3.80
2018-05-17T18:18:04.262Z,4.07
2018-05-17T18:20:33.147Z,3.80
2018-05-17T18:23:01.956Z,3.70
2018-05-17T18:25:31.135Z,3.67
2018-05-17T18:28:00.025Z,4.20
2018-05-17T18:30:28.846Z,4.17
2018-05-17T18:32:58.626Z,3.50
2018-05-17T18:35:27.440Z,4.60
2018-05-17T18:37:56.231Z,3.97
2018-05-17T18:40:25.099Z,3.93
2018-05-17T18:42:53.895Z,3.43
2018-05-17T18:45:22.685Z,3.93
2018-05-17T18:47:51.883Z,4.00
2018-05-17T18:50:20.759Z,4.20
2018-05-17T18:52:49.558Z,4.33
2018-05-17T18:55:22.912Z,3.83
2018-05-17T18:57:47.665Z,4.00
2018-05-17T19:00:16.487Z,4.07
2018-05-17T19:02:45.880Z,3.97
2018-05-17T19:05:14.660Z,4.83
2018-05-17T19:07:44.734Z,4.60
2018-05-17T19:10:13.563Z,5.00
2018-05-17T19:12:42.373Z,4.10
2018-05-17T19:15:11.420Z,4.77
2018-05-17T19:17:40.232Z,4.00
2018-05-17T19:20:09.030Z,3.90
2018-05-17T19:22:38.415Z,4.07
2018-05-17T19:25:07.217Z,4.07
2018-05-17T19:27:36.026Z,4.40
2018-05-17T19:30:04.883Z,4.43
2018-05-17T19:32:33.682Z,3.90
2018-05-17T19:35:03.780Z,4.73
2018-05-17T19:37:32.592Z,4.50
2018-05-17T19:40:01.409Z,4.77
2018-05-17T19:42:30.559Z,4.37
2018-05-17T19:44:59.362Z,4.27
2018-05-17T19:47:28.158Z,4.67
2018-05-17T19:49:57.041Z,4.10
2018-05-17T19:52:25.840Z,4.40
2018-05-17T19:54:54.645Z,4.33
2018-05-17T19:57:23.689Z,5.03
2018-05-17T19:59:52.491Z,4.53
2018-05-17T20:02:21.291Z,4.43
2018-05-17T20:04:50.900Z,4.50
2018-05-17T20:07:19.703Z,4.67
2018-05-17T20:09:52.356Z,4.47
2018-05-17T20:12:21.159Z,4.47
2018-05-17T20:14:50.036Z,4.57
2018-05-17T20:17:18.852Z,4.60
2018-05-17T20:19:47.668Z,4.80
2018-05-17T20:22:16.867Z,5.07
2018-05-17T20:24:45.679Z,5.10
2018-05-17T20:27:14.500Z,4.83
2018-05-17T20:29:43.880Z,4.90
2018-05-17T20:32:12.695Z,4.53
2018-05-17T20:34:41.520Z,4.90
2018-05-17T20:37:11.587Z,5.03
2018-05-17T20:39:40.419Z,5.20
2018-05-17T20:42:09.233Z,4.87
2018-05-17T20:44:38.059Z,5.40
2018-05-17T20:47:06.864Z,4.63
2018-05-17T20:49:35.757Z,4.80
2018-05-17T20:52:04.542Z,5.77
2018-05-17T20:54:33.427Z,5.77
2018-05-17T20:57:02.260Z,5.17
2018-05-17T20:59:31.046Z,4.67
2018-05-17T21:01:59.856Z,5.03
2018-05-17T21:04:29.587Z,4.80
2018-05-17T21:06:58.387Z,4.80
2018-05-17T21:09:28.391Z,5.70
2018-05-17T21:11:57.491Z,5.72
2018-05-17T21:14:26.389Z,4.83
2018-05-17T21:16:55.281Z,5.67
2018-05-17T21:19:24.119Z,5.03
2018-05-17T21:21:52.941Z,5.77
2018-05-17T21:24:21.743Z,5.17
2018-05-17T21:26:51.556Z,5.77
2018-05-17T21:29:20.361Z,5.27
2018-05-17T21:31:49.165Z,5.30
2018-05-17T21:34:18.069Z,4.90
2018-05-17T21:36:46.887Z,5.40
2018-05-17T21:39:15.698Z,5.27
2018-05-17T21:41:44.544Z,5.07
2018-05-17T21:44:13.367Z,4.73
2018-05-17T21:46:43.722Z,4.73
2018-05-17T21:49:12.539Z,4.53
2018-05-17T21:51:41.358Z,5.07
2018-05-17T21:54:10.231Z,4.87
2018-05-17T21:56:39.043Z,4.83
2018-05-17T21:59:07.863Z,4.87
2018-05-17T22:01:36.717Z,4.87
2018-05-17T22:04:05.523Z,5.57
2018-05-17T22:06:34.336Z,4.80
2018-05-17T22:09:06.658Z,4.70
2018-05-17T22:11:35.495Z,4.97
2018-05-17T22:14:04.677Z,4.90
2018-05-17T22:16:33.530Z,5.23
2018-05-17T22:19:02.343Z,4.80
2018-05-17T22:21:31.162Z,5.10
2018-05-17T22:24:00.246Z,4.73
2018-05-17T22:26:29.142Z,4.80
2018-05-17T22:28:58.041Z,4.53
2018-05-17T22:31:27.239Z,4.60
2018-05-17T22:33:56.052Z,4.17
2018-05-17T22:36:24.863Z,5.50
2018-05-17T22:38:53.695Z,4.97
2018-05-17T22:41:22.502Z,4.13
2018-05-17T22:43:51.391Z,4.80
2018-05-17T22:46:20.203Z,5.17
2018-05-17T22:48:49.029Z,4.80
2018-05-17T22:51:17.946Z,4.90
2018-05-17T22:53:46.749Z,4.23
2018-05-17T22:56:21.316Z,5.93
2018-05-17T22:58:50.130Z,5.13
2018-05-17T23:01:18.952Z,5.10
2018-05-17T23:03:48.146Z,5.13
2018-05-17T23:06:17.292Z,4.90
2018-05-17T23:08:47.975Z,5.40
2018-05-17T23:11:17.277Z,5.77
2018-05-17T23:13:46.081Z,4.90
2018-05-17T23:16:15.126Z,4.70
2018-05-17T23:18:44.001Z,4.80
2018-05-17T23:21:12.844Z,5.17
2018-05-17T23:23:41.656Z,5.57
2018-05-17T23:26:10.834Z,4.87
2018-05-17T23:28:39.718Z,4.60
2018-05-17T23:31:08.622Z,5.43
2018-05-17T23:33:37.807Z,4.93
2018-05-17T23:36:06.626Z,4.47
2018-05-17T23:38:35.487Z,4.80
2018-05-17T23:41:10.135Z,5.03
2018-05-17T23:43:38.954Z,4.87
2018-05-17T23:46:07.764Z,5.37
2018-05-17T23:48:36.627Z,4.53
2018-05-17T23:51:05.430Z,5.27
2018-05-17T23:53:34.265Z,5.20
2018-05-17T23:56:03.359Z,5.07
2018-05-17T23:58:32.158Z,4.53
